aviador You're here:

LEVC Decoded Metar

VALENCIA in SPAIN
Report Time2017-03-01 19:30:00
UTC Time2017-03-01 19:56:06
Flight Rules vfr VFR
Wind010° at 05 kt
W.Decomp.*RWY 30: 1.6 kt HW 4.7 kt RCW
W.Rank010° ranks 29
Current wind is below 010° avg. (5.2)
Visibility9999 m
Phenomena:N/A
Clouds:N/A
Expected CloudBase > 1,200 ft AGL from Temp-Dew spread
CeilingNone
Temp14°C (ISA -1)
Dew Point11°C (82% RH)
AAT12.5°C
QNH1019 hPa
Density Alt105 ft
Elevation203 ft
Report Wrong Elevation
Raw Report
METAR LEVC 011930Z 01005KT 340V040 CAVOK 14/11 Q1019 NOSIG=

Extra information for LEVC:More info

Metar Taf Metar & Taf Last 4 Metars F.Rules Stats Wind Profile Meteogram Temp Stats Airport Information Weather charts Add Link Nearby VenuesMetar ALERT Operation Metar Decoded Social comments

Webcam Valencia